sensor_id;sensor_type;location;lat;lon;timestamp;temperature;humidity
51655;DHT22;37732;53.106;7.030;2023-07-20T00:00:50;15.90;99.90
51655;DHT22;37732;53.106;7.030;2023-07-20T00:03:19;15.80;99.90
51655;DHT22;37732;53.106;7.030;2023-07-20T00:05:51;15.80;99.90
51655;DHT22;37732;53.106;7.030;2023-07-20T00:08:18;15.80;99.90
51655;DHT22;37732;53.106;7.030;2023-07-20T00:10:44;15.70;99.90
51655;DHT22;37732;53.106;7.030;2023-07-20T00:13:11;15.70;99.90
51655;DHT22;37732;53.106;7.030;2023-07-20T00:15:38;15.70;99.90
51655;DHT22;37732;53.106;7.030;2023-07-20T00:18:04;15.70;99.90
51655;DHT22;37732;53.106;7.030;2023-07-20T00:20:31;15.70;99.90
51655;DHT22;37732;53.106;7.030;2023-07-20T00:22:58;15.70;99.90
51655;DHT22;37732;53.106;7.030;2023-07-20T00:25:24;15.70;99.90
51655;DHT22;37732;53.106;7.030;2023-07-20T00:27:50;15.70;99.90
51655;DHT22;37732;53.106;7.030;2023-07-20T00:30:16;15.70;99.90
51655;DHT22;37732;53.106;7.030;2023-07-20T00:32:43;15.60;99.90
51655;DHT22;37732;53.106;7.030;2023-07-20T00:35:09;15.70;99.90
51655;DHT22;37732;53.106;7.030;2023-07-20T00:37:35;15.70;99.90
51655;DHT22;37732;53.106;7.030;2023-07-20T00:40:01;15.70;99.90
51655;DHT22;37732;53.106;7.030;2023-07-20T00:42:30;15.60;99.90
51655;DHT22;37732;53.106;7.030;2023-07-20T00:44:55;15.60;99.90
51655;DHT22;37732;53.106;7.030;2023-07-20T00:47:21;15.60;99.90
51655;DHT22;37732;53.106;7.030;2023-07-20T00:49:47;15.60;99.90
51655;DHT22;37732;53.106;7.030;2023-07-20T00:52:14;15.50;99.90
51655;DHT22;37732;53.106;7.030;2023-07-20T00:54:41;15.50;99.90
51655;DHT22;37732;53.106;7.030;2023-07-20T00:57:07;15.50;99.90
51655;DHT22;37732;53.106;7.030;2023-07-20T00:59:34;15.50;99.90
51655;DHT22;37732;53.106;7.030;2023-07-20T01:02:02;15.50;99.90
51655;DHT22;37732;53.106;7.030;2023-07-20T01:04:29;15.50;99.90
51655;DHT22;37732;53.106;7.030;2023-07-20T01:07:07;15.50;99.90
51655;DHT22;37732;53.106;7.030;2023-07-20T01:12:30;15.50;99.90
51655;DHT22;37732;53.106;7.030;2023-07-20T01:14:57;15.40;99.90
51655;DHT22;37732;53.106;7.030;2023-07-20T01:17:23;15.40;99.90
51655;DHT22;37732;53.106;7.030;2023-07-20T01:19:49;15.40;99.90
51655;DHT22;37732;53.106;7.030;2023-07-20T01:30:14;15.40;99.90
51655;DHT22;37732;53.106;7.030;2023-07-20T01:32:42;15.40;99.90
51655;DHT22;37732;53.106;7.030;2023-07-20T01:35:12;15.30;99.90
51655;DHT22;37732;53.106;7.030;2023-07-20T01:37:42;15.30;99.90
51655;DHT22;37732;53.106;7.030;2023-07-20T01:40:10;15.30;99.90
51655;DHT22;37732;53.106;7.030;2023-07-20T01:42:37;15.30;99.90
51655;DHT22;37732;53.106;7.030;2023-07-20T01:45:03;15.30;99.90
51655;DHT22;37732;53.106;7.030;2023-07-20T01:47:29;15.30;99.90
51655;DHT22;37732;53.106;7.030;2023-07-20T01:49:55;15.20;99.90
51655;DHT22;37732;53.106;7.030;2023-07-20T01:52:21;15.20;99.90
51655;DHT22;37732;53.106;7.030;2023-07-20T01:54:48;15.10;99.90
51655;DHT22;37732;53.106;7.030;2023-07-20T01:57:14;15.10;99.90
51655;DHT22;37732;53.106;7.030;2023-07-20T01:59:41;15.00;99.90
51655;DHT22;37732;53.106;7.030;2023-07-20T02:02:07;15.00;99.90
51655;DHT22;37732;53.106;7.030;2023-07-20T02:04:32;15.00;99.90
51655;DHT22;37732;53.106;7.030;2023-07-20T02:06:59;14.90;99.90
51655;DHT22;37732;53.106;7.030;2023-07-20T02:09:25;14.90;99.90
51655;DHT22;37732;53.106;7.030;2023-07-20T02:11:51;14.80;99.90
51655;DHT22;37732;53.106;7.030;2023-07-20T02:14:17;14.80;99.90
51655;DHT22;37732;53.106;7.030;2023-07-20T02:16:44;14.70;99.90
51655;DHT22;37732;53.106;7.030;2023-07-20T02:19:10;14.70;99.90
51655;DHT22;37732;53.106;7.030;2023-07-20T02:21:36;14.70;99.90
51655;DHT22;37732;53.106;7.030;2023-07-20T02:24:03;14.70;99.90
51655;DHT22;37732;53.106;7.030;2023-07-20T02:26:28;14.70;99.90
51655;DHT22;37732;53.106;7.030;2023-07-20T02:28:55;14.70;99.90
51655;DHT22;37732;53.106;7.030;2023-07-20T02:31:21;14.70;99.90
51655;DHT22;37732;53.106;7.030;2023-07-20T02:33:47;14.60;99.90
51655;DHT22;37732;53.106;7.030;2023-07-20T02:36:13;14.50;99.90
51655;DHT22;37732;53.106;7.030;2023-07-20T02:38:40;14.50;99.90
51655;DHT22;37732;53.106;7.030;2023-07-20T02:41:06;14.40;99.90
51655;DHT22;37732;53.106;7.030;2023-07-20T02:43:32;14.40;99.90
51655;DHT22;37732;53.106;7.030;2023-07-20T02:45:59;14.40;99.90
51655;DHT22;37732;53.106;7.030;2023-07-20T02:48:25;14.30;99.90
51655;DHT22;37732;53.106;7.030;2023-07-20T02:50:51;14.30;99.90
51655;DHT22;37732;53.106;7.030;2023-07-20T02:53:17;14.30;99.90
51655;DHT22;37732;53.106;7.030;2023-07-20T02:55:43;14.20;99.90
51655;DHT22;37732;53.106;7.030;2023-07-20T02:58:09;14.20;99.90
51655;DHT22;37732;53.106;7.030;2023-07-20T03:00:35;14.10;99.90
51655;DHT22;37732;53.106;7.030;2023-07-20T03:03:01;14.10;99.90
51655;DHT22;37732;53.106;7.030;2023-07-20T03:05:28;14.00;99.90
51655;DHT22;37732;53.106;7.030;2023-07-20T03:07:55;14.00;99.90
51655;DHT22;37732;53.106;7.030;2023-07-20T03:10:21;14.00;99.90
51655;DHT22;37732;53.106;7.030;2023-07-20T03:12:47;14.00;99.90
51655;DHT22;37732;53.106;7.030;2023-07-20T03:15:13;13.90;99.90
51655;DHT22;37732;53.106;7.030;2023-07-20T03:17:39;13.80;99.90
51655;DHT22;37732;53.106;7.030;2023-07-20T03:20:06;13.80;99.90
51655;DHT22;37732;53.106;7.030;2023-07-20T03:22:34;13.70;99.90
51655;DHT22;37732;53.106;7.030;2023-07-20T03:25:00;13.70;99.90
51655;DHT22;37732;53.106;7.030;2023-07-20T03:27:26;13.70;99.90
51655;DHT22;37732;53.106;7.030;2023-07-20T03:29:51;13.60;99.90
51655;DHT22;37732;53.106;7.030;2023-07-20T03:32:17;13.50;99.90
51655;DHT22;37732;53.106;7.030;2023-07-20T03:34:43;13.50;99.90
51655;DHT22;37732;53.106;7.030;2023-07-20T03:37:09;13.50;99.90
51655;DHT22;37732;53.106;7.030;2023-07-20T03:39:35;13.50;99.90
51655;DHT22;37732;53.106;7.030;2023-07-20T03:42:02;13.40;99.90
51655;DHT22;37732;53.106;7.030;2023-07-20T03:44:28;13.40;99.90
51655;DHT22;37732;53.106;7.030;2023-07-20T03:46:54;13.40;99.90
51655;DHT22;37732;53.106;7.030;2023-07-20T03:49:21;13.30;99.90
51655;DHT22;37732;53.106;7.030;2023-07-20T03:51:47;13.40;99.90
51655;DHT22;37732;53.106;7.030;2023-07-20T03:54:13;13.30;99.90
51655;DHT22;37732;53.106;7.030;2023-07-20T03:56:39;13.30;99.90
51655;DHT22;37732;53.106;7.030;2023-07-20T03:59:06;13.20;99.90
51655;DHT22;37732;53.106;7.030;2023-07-20T04:01:32;13.20;99.90
51655;DHT22;37732;53.106;7.030;2023-07-20T04:04:05;13.20;99.90
51655;DHT22;37732;53.106;7.030;2023-07-20T04:06:31;13.20;99.90
51655;DHT22;37732;53.106;7.030;2023-07-20T04:08:57;13.20;99.90
51655;DHT22;37732;53.106;7.030;2023-07-20T04:11:23;13.10;99.90
51655;DHT22;37732;53.106;7.030;2023-07-20T04:13:49;13.10;99.90
51655;DHT22;37732;53.106;7.030;2023-07-20T04:16:15;13.10;99.90
51655;DHT22;37732;53.106;7.030;2023-07-20T04:18:41;13.10;99.90
51655;DHT22;37732;53.106;7.030;2023-07-20T04:21:08;13.10;99.90
51655;DHT22;37732;53.106;7.030;2023-07-20T04:23:34;13.10;99.90
51655;DHT22;37732;53.106;7.030;2023-07-20T04:26:01;13.10;99.90
51655;DHT22;37732;53.106;7.030;2023-07-20T04:28:27;13.10;99.90
51655;DHT22;37732;53.106;7.030;2023-07-20T04:30:53;13.10;99.90
51655;DHT22;37732;53.106;7.030;2023-07-20T04:33:19;13.10;99.90
51655;DHT22;37732;53.106;7.030;2023-07-20T04:35:53;13.10;99.90
51655;DHT22;37732;53.106;7.030;2023-07-20T04:38:22;13.10;99.90
51655;DHT22;37732;53.106;7.030;2023-07-20T04:40:49;13.10;99.90
51655;DHT22;37732;53.106;7.030;2023-07-20T04:43:17;13.10;99.90
51655;DHT22;37732;53.106;7.030;2023-07-20T04:45:44;13.10;99.90
51655;DHT22;37732;53.106;7.030;2023-07-20T04:48:13;13.10;99.90
51655;DHT22;37732;53.106;7.030;2023-07-20T04:50:41;13.10;99.90
51655;DHT22;37732;53.106;7.030;2023-07-20T04:53:08;13.10;99.90
51655;DHT22;37732;53.106;7.030;2023-07-20T04:55:36;13.10;99.90
51655;DHT22;37732;53.106;7.030;2023-07-20T04:58:03;13.20;99.90
51655;DHT22;37732;53.106;7.030;2023-07-20T05:00:30;13.20;99.90
51655;DHT22;37732;53.106;7.030;2023-07-20T05:02:56;13.30;99.90
51655;DHT22;37732;53.106;7.030;2023-07-20T05:05:22;13.30;99.90
51655;DHT22;37732;53.106;7.030;2023-07-20T05:07:48;13.30;99.90
51655;DHT22;37732;53.106;7.030;2023-07-20T05:10:14;13.40;99.90
51655;DHT22;37732;53.106;7.030;2023-07-20T05:12:39;13.40;99.90
51655;DHT22;37732;53.106;7.030;2023-07-20T05:15:05;13.50;99.90
51655;DHT22;37732;53.106;7.030;2023-07-20T05:17:31;13.50;99.90
51655;DHT22;37732;53.106;7.030;2023-07-20T05:19:57;13.40;99.90
51655;DHT22;37732;53.106;7.030;2023-07-20T05:22:22;13.50;99.90
51655;DHT22;37732;53.106;7.030;2023-07-20T05:24:50;13.50;99.90
51655;DHT22;37732;53.106;7.030;2023-07-20T05:27:16;13.60;99.90
51655;DHT22;37732;53.106;7.030;2023-07-20T05:29:45;13.70;99.90
51655;DHT22;37732;53.106;7.030;2023-07-20T05:32:11;13.90;99.90
51655;DHT22;37732;53.106;7.030;2023-07-20T05:34:37;13.90;99.90
51655;DHT22;37732;53.106;7.030;2023-07-20T05:37:03;14.00;99.90
51655;DHT22;37732;53.106;7.030;2023-07-20T05:39:28;14.10;99.90
51655;DHT22;37732;53.106;7.030;2023-07-20T05:41:54;14.20;99.90
51655;DHT22;37732;53.106;7.030;2023-07-20T05:44:20;14.20;99.90
51655;DHT22;37732;53.106;7.030;2023-07-20T05:46:46;14.30;99.90
51655;DHT22;37732;53.106;7.030;2023-07-20T05:49:12;14.30;99.90
51655;DHT22;37732;53.106;7.030;2023-07-20T05:51:39;14.40;99.90
51655;DHT22;37732;53.106;7.030;2023-07-20T05:54:05;14.40;99.90
51655;DHT22;37732;53.106;7.030;2023-07-20T05:56:31;14.50;99.90
51655;DHT22;37732;53.106;7.030;2023-07-20T05:58:58;14.60;99.90
51655;DHT22;37732;53.106;7.030;2023-07-20T06:01:24;14.80;99.90
51655;DHT22;37732;53.106;7.030;2023-07-20T06:03:52;15.00;99.90
51655;DHT22;37732;53.106;7.030;2023-07-20T06:06:18;15.10;99.90
51655;DHT22;37732;53.106;7.030;2023-07-20T06:08:44;15.30;99.90
51655;DHT22;37732;53.106;7.030;2023-07-20T06:11:11;15.50;99.90
51655;DHT22;37732;53.106;7.030;2023-07-20T06:13:36;15.70;99.90
51655;DHT22;37732;53.106;7.030;2023-07-20T06:16:03;15.80;99.90
51655;DHT22;37732;53.106;7.030;2023-07-20T06:18:29;15.90;99.90
51655;DHT22;37732;53.106;7.030;2023-07-20T06:20:55;16.00;99.90
51655;DHT22;37732;53.106;7.030;2023-07-20T06:23:22;16.20;99.90
51655;DHT22;37732;53.106;7.030;2023-07-20T06:25:48;16.10;99.90
51655;DHT22;37732;53.106;7.030;2023-07-20T06:28:15;16.20;99.90
51655;DHT22;37732;53.106;7.030;2023-07-20T06:30:41;16.40;99.90
51655;DHT22;37732;53.106;7.030;2023-07-20T06:33:07;16.50;99.90
51655;DHT22;37732;53.106;7.030;2023-07-20T06:35:34;16.70;99.90
51655;DHT22;37732;53.106;7.030;2023-07-20T06:38:01;16.90;99.90
51655;DHT22;37732;53.106;7.030;2023-07-20T06:40:28;17.10;99.90
51655;DHT22;37732;53.106;7.030;2023-07-20T06:42:54;17.40;99.90
51655;DHT22;37732;53.106;7.030;2023-07-20T06:45:20;17.40;99.90
51655;DHT22;37732;53.106;7.030;2023-07-20T06:47:46;17.40;99.90
51655;DHT22;37732;53.106;7.030;2023-07-20T06:50:12;17.70;99.90
51655;DHT22;37732;53.106;7.030;2023-07-20T06:52:40;18.00;99.90
51655;DHT22;37732;53.106;7.030;2023-07-20T06:55:07;18.20;99.90
51655;DHT22;37732;53.106;7.030;2023-07-20T06:57:33;18.30;99.90
51655;DHT22;37732;53.106;7.030;2023-07-20T06:59:59;18.30;99.90
51655;DHT22;37732;53.106;7.030;2023-07-20T07:02:27;18.40;99.90
51655;DHT22;37732;53.106;7.030;2023-07-20T07:04:53;18.60;99.90
51655;DHT22;37732;53.106;7.030;2023-07-20T07:07:19;18.60;99.90
51655;DHT22;37732;53.106;7.030;2023-07-20T07:09:45;18.80;99.90
51655;DHT22;37732;53.106;7.030;2023-07-20T07:12:11;19.10;99.90
51655;DHT22;37732;53.106;7.030;2023-07-20T07:14:37;19.40;99.90
51655;DHT22;37732;53.106;7.030;2023-07-20T07:17:03;19.60;99.90
51655;DHT22;37732;53.106;7.030;2023-07-20T07:19:30;19.80;99.90
51655;DHT22;37732;53.106;7.030;2023-07-20T07:21:57;19.90;99.90
51655;DHT22;37732;53.106;7.030;2023-07-20T07:24:23;19.80;99.90
51655;DHT22;37732;53.106;7.030;2023-07-20T07:26:50;19.80;99.90
51655;DHT22;37732;53.106;7.030;2023-07-20T07:29:16;19.80;99.90
51655;DHT22;37732;53.106;7.030;2023-07-20T07:31:43;19.90;99.90
51655;DHT22;37732;53.106;7.030;2023-07-20T07:34:09;20.10;99.90
51655;DHT22;37732;53.106;7.030;2023-07-20T07:36:36;20.10;99.90
51655;DHT22;37732;53.106;7.030;2023-07-20T07:39:02;19.90;99.90
51655;DHT22;37732;53.106;7.030;2023-07-20T07:41:28;19.80;99.90
51655;DHT22;37732;53.106;7.030;2023-07-20T07:43:56;20.00;99.90
51655;DHT22;37732;53.106;7.030;2023-07-20T07:46:22;20.20;99.90
51655;DHT22;37732;53.106;7.030;2023-07-20T07:48:48;20.50;99.90
51655;DHT22;37732;53.106;7.030;2023-07-20T07:51:15;20.90;99.90
51655;DHT22;37732;53.106;7.030;2023-07-20T07:53:41;21.10;99.90
51655;DHT22;37732;53.106;7.030;2023-07-20T07:56:08;20.90;99.90
51655;DHT22;37732;53.106;7.030;2023-07-20T07:58:34;20.80;99.90
51655;DHT22;37732;53.106;7.030;2023-07-20T08:01:00;20.50;99.90
51655;DHT22;37732;53.106;7.030;2023-07-20T08:03:27;20.40;99.90
51655;DHT22;37732;53.106;7.030;2023-07-20T08:05:56;20.10;99.90
51655;DHT22;37732;53.106;7.030;2023-07-20T08:08:22;20.20;99.90
51655;DHT22;37732;53.106;7.030;2023-07-20T08:10:48;20.40;99.90
51655;DHT22;37732;53.106;7.030;2023-07-20T08:13:14;20.80;99.90
51655;DHT22;37732;53.106;7.030;2023-07-20T08:15:48;21.10;99.90
51655;DHT22;37732;53.106;7.030;2023-07-20T08:18:14;21.00;99.90
51655;DHT22;37732;53.106;7.030;2023-07-20T08:20:44;21.10;99.90
51655;DHT22;37732;53.106;7.030;2023-07-20T08:23:09;21.10;99.90
51655;DHT22;37732;53.106;7.030;2023-07-20T08:25:39;20.90;99.90
51655;DHT22;37732;53.106;7.030;2023-07-20T08:28:14;20.60;99.90
51655;DHT22;37732;53.106;7.030;2023-07-20T08:30:45;20.30;99.90
51655;DHT22;37732;53.106;7.030;2023-07-20T08:33:14;20.40;99.90
51655;DHT22;37732;53.106;7.030;2023-07-20T08:35:40;20.40;99.90
51655;DHT22;37732;53.106;7.030;2023-07-20T08:38:06;20.50;99.90
51655;DHT22;37732;53.106;7.030;2023-07-20T08:40:34;20.80;99.90
51655;DHT22;37732;53.106;7.030;2023-07-20T08:43:00;20.90;99.90
51655;DHT22;37732;53.106;7.030;2023-07-20T08:45:27;21.10;99.90
51655;DHT22;37732;53.106;7.030;2023-07-20T08:47:58;21.50;99.90
51655;DHT22;37732;53.106;7.030;2023-07-20T08:50:26;21.80;99.90
51655;DHT22;37732;53.106;7.030;2023-07-20T08:52:52;21.60;99.50
51655;DHT22;37732;53.106;7.030;2023-07-20T08:55:21;21.50;99.10
51655;DHT22;37732;53.106;7.030;2023-07-20T08:57:50;21.30;98.30
51655;DHT22;37732;53.106;7.030;2023-07-20T09:00:20;21.00;98.40
51655;DHT22;37732;53.106;7.030;2023-07-20T09:02:50;20.90;98.00
51655;DHT22;37732;53.106;7.030;2023-07-20T09:05:17;20.90;99.10
51655;DHT22;37732;53.106;7.030;2023-07-20T09:07:43;21.10;99.00
51655;DHT22;37732;53.106;7.030;2023-07-20T09:10:09;21.40;98.70
51655;DHT22;37732;53.106;7.030;2023-07-20T09:12:41;21.40;98.60
51655;DHT22;37732;53.106;7.030;2023-07-20T09:15:08;21.10;99.10
51655;DHT22;37732;53.106;7.030;2023-07-20T09:17:34;20.80;98.30
51655;DHT22;37732;53.106;7.030;2023-07-20T09:20:07;20.70;98.80
51655;DHT22;37732;53.106;7.030;2023-07-20T09:22:36;20.70;99.70
51655;DHT22;37732;53.106;7.030;2023-07-20T09:25:13;20.90;98.80
51655;DHT22;37732;53.106;7.030;2023-07-20T09:27:41;21.00;97.30
51655;DHT22;37732;53.106;7.030;2023-07-20T09:30:09;21.30;99.00
51655;DHT22;37732;53.106;7.030;2023-07-20T09:32:46;21.90;99.00
51655;DHT22;37732;53.106;7.030;2023-07-20T09:35:17;21.90;97.20
51655;DHT22;37732;53.106;7.030;2023-07-20T09:37:58;22.00;97.30
51655;DHT22;37732;53.106;7.030;2023-07-20T09:40:26;21.60;96.60
51655;DHT22;37732;53.106;7.030;2023-07-20T09:42:53;21.50;96.70
51655;DHT22;37732;53.106;7.030;2023-07-20T09:45:40;21.60;96.80
51655;DHT22;37732;53.106;7.030;2023-07-20T09:48:08;21.90;96.10
51655;DHT22;37732;53.106;7.030;2023-07-20T09:50:43;21.90;96.10
51655;DHT22;37732;53.106;7.030;2023-07-20T09:53:12;22.30;98.40
51655;DHT22;37732;53.106;7.030;2023-07-20T09:55:43;22.40;96.10
51655;DHT22;37732;53.106;7.030;2023-07-20T09:58:09;22.50;95.00
51655;DHT22;37732;53.106;7.030;2023-07-20T10:00:39;22.50;95.20
51655;DHT22;37732;53.106;7.030;2023-07-20T10:03:07;22.40;96.60
51655;DHT22;37732;53.106;7.030;2023-07-20T10:05:36;22.50;96.00
51655;DHT22;37732;53.106;7.030;2023-07-20T10:08:11;22.50;94.30
51655;DHT22;37732;53.106;7.030;2023-07-20T10:10:40;22.50;95.80
51655;DHT22;37732;53.106;7.030;2023-07-20T10:13:11;22.90;97.00
51655;DHT22;37732;53.106;7.030;2023-07-20T10:16:02;23.30;95.50
51655;DHT22;37732;53.106;7.030;2023-07-20T10:18:41;23.30;89.20
51655;DHT22;37732;53.106;7.030;2023-07-20T10:21:17;23.50;94.30
51655;DHT22;37732;53.106;7.030;2023-07-20T10:23:43;23.70;93.50
51655;DHT22;37732;53.106;7.030;2023-07-20T10:26:09;23.80;91.90
51655;DHT22;37732;53.106;7.030;2023-07-20T10:28:36;23.50;91.60
51655;DHT22;37732;53.106;7.030;2023-07-20T10:31:03;23.50;93.00
51655;DHT22;37732;53.106;7.030;2023-07-20T10:33:29;23.30;91.30
51655;DHT22;37732;53.106;7.030;2023-07-20T10:36:00;23.40;91.90
51655;DHT22;37732;53.106;7.030;2023-07-20T10:38:40;23.60;92.30
51655;DHT22;37732;53.106;7.030;2023-07-20T10:43:50;24.20;90.60
51655;DHT22;37732;53.106;7.030;2023-07-20T10:49:08;24.80;88.50
51655;DHT22;37732;53.106;7.030;2023-07-20T10:51:44;24.70;88.40
51655;DHT22;37732;53.106;7.030;2023-07-20T10:57:23;24.30;89.20
51655;DHT22;37732;53.106;7.030;2023-07-20T10:59:49;24.20;87.70
51655;DHT22;37732;53.106;7.030;2023-07-20T11:02:18;24.40;90.60
51655;DHT22;37732;53.106;7.030;2023-07-20T11:04:46;24.50;87.90
51655;DHT22;37732;53.106;7.030;2023-07-20T11:07:17;24.40;86.40
51655;DHT22;37732;53.106;7.030;2023-07-20T11:09:43;24.00;85.10
51655;DHT22;37732;53.106;7.030;2023-07-20T11:12:15;23.80;86.70
51655;DHT22;37732;53.106;7.030;2023-07-20T11:14:42;23.70;87.40
51655;DHT22;37732;53.106;7.030;2023-07-20T11:17:15;23.70;88.70
51655;DHT22;37732;53.106;7.030;2023-07-20T11:19:43;24.00;88.90
51655;DHT22;37732;53.106;7.030;2023-07-20T11:22:09;24.00;84.40
51655;DHT22;37732;53.106;7.030;2023-07-20T11:24:39;24.00;86.80
51655;DHT22;37732;53.106;7.030;2023-07-20T11:27:06;24.10;84.90
51655;DHT22;37732;53.106;7.030;2023-07-20T11:29:31;24.10;87.90
51655;DHT22;37732;53.106;7.030;2023-07-20T11:31:57;24.20;88.00
51655;DHT22;37732;53.106;7.030;2023-07-20T11:34:26;24.40;86.00
51655;DHT22;37732;53.106;7.030;2023-07-20T11:36:53;24.70;85.40
51655;DHT22;37732;53.106;7.030;2023-07-20T11:39:21;24.80;83.30
51655;DHT22;37732;53.106;7.030;2023-07-20T11:41:49;24.70;79.30
51655;DHT22;37732;53.106;7.030;2023-07-20T11:44:16;24.60;79.60
51655;DHT22;37732;53.106;7.030;2023-07-20T11:46:43;24.40;80.60
51655;DHT22;37732;53.106;7.030;2023-07-20T11:49:10;24.40;78.50
51655;DHT22;37732;53.106;7.030;2023-07-20T11:51:36;24.50;78.00
51655;DHT22;37732;53.106;7.030;2023-07-20T11:54:04;24.70;78.70
51655;DHT22;37732;53.106;7.030;2023-07-20T11:56:30;25.00;76.80
51655;DHT22;37732;53.106;7.030;2023-07-20T11:58:57;25.00;77.10
51655;DHT22;37732;53.106;7.030;2023-07-20T12:01:27;24.90;79.20
51655;DHT22;37732;53.106;7.030;2023-07-20T12:04:01;25.00;78.40
51655;DHT22;37732;53.106;7.030;2023-07-20T12:06:29;24.80;79.60
51655;DHT22;37732;53.106;7.030;2023-07-20T12:08:56;24.40;78.60
51655;DHT22;37732;53.106;7.030;2023-07-20T12:11:38;24.10;76.80
51655;DHT22;37732;53.106;7.030;2023-07-20T12:14:07;23.90;79.90
51655;DHT22;37732;53.106;7.030;2023-07-20T12:16:34;23.90;81.70
51655;DHT22;37732;53.106;7.030;2023-07-20T12:21:30;24.10;83.00
51655;DHT22;37732;53.106;7.030;2023-07-20T12:23:58;24.30;79.80
51655;DHT22;37732;53.106;7.030;2023-07-20T12:26:28;24.60;79.60
51655;DHT22;37732;53.106;7.030;2023-07-20T12:28:54;24.60;77.30
51655;DHT22;37732;53.106;7.030;2023-07-20T12:31:21;24.40;76.80
51655;DHT22;37732;53.106;7.030;2023-07-20T12:33:49;24.30;79.60
51655;DHT22;37732;53.106;7.030;2023-07-20T12:36:15;23.90;79.20
51655;DHT22;37732;53.106;7.030;2023-07-20T12:38:41;23.80;80.40
51655;DHT22;37732;53.106;7.030;2023-07-20T12:41:10;23.70;79.20
51655;DHT22;37732;53.106;7.030;2023-07-20T12:43:38;23.60;80.20
51655;DHT22;37732;53.106;7.030;2023-07-20T12:46:04;23.60;80.40
51655;DHT22;37732;53.106;7.030;2023-07-20T12:48:30;23.60;80.80
51655;DHT22;37732;53.106;7.030;2023-07-20T12:50:57;23.80;81.70
51655;DHT22;37732;53.106;7.030;2023-07-20T12:53:24;24.10;82.00
51655;DHT22;37732;53.106;7.030;2023-07-20T12:55:50;24.50;80.70
51655;DHT22;37732;53.106;7.030;2023-07-20T12:58:16;24.80;80.70
51655;DHT22;37732;53.106;7.030;2023-07-20T13:00:44;25.00;79.50
51655;DHT22;37732;53.106;7.030;2023-07-20T13:03:10;24.70;76.30
51655;DHT22;37732;53.106;7.030;2023-07-20T13:05:37;24.40;75.60
51655;DHT22;37732;53.106;7.030;2023-07-20T13:08:04;24.10;78.60
51655;DHT22;37732;53.106;7.030;2023-07-20T13:10:31;24.00;80.40
51655;DHT22;37732;53.106;7.030;2023-07-20T13:12:59;23.80;76.10
51655;DHT22;37732;53.106;7.030;2023-07-20T13:15:30;23.60;79.80
51655;DHT22;37732;53.106;7.030;2023-07-20T13:17:58;23.40;86.10
51655;DHT22;37732;53.106;7.030;2023-07-20T13:20:25;23.10;87.30
51655;DHT22;37732;53.106;7.030;2023-07-20T13:22:52;22.50;90.20
51655;DHT22;37732;53.106;7.030;2023-07-20T13:25:18;21.90;93.20
51655;DHT22;37732;53.106;7.030;2023-07-20T13:27:45;21.60;96.50
51655;DHT22;37732;53.106;7.030;2023-07-20T13:30:12;21.40;99.00
51655;DHT22;37732;53.106;7.030;2023-07-20T13:32:43;21.50;99.90
51655;DHT22;37732;53.106;7.030;2023-07-20T13:35:13;21.60;99.90
51655;DHT22;37732;53.106;7.030;2023-07-20T13:37:39;21.70;99.90
51655;DHT22;37732;53.106;7.030;2023-07-20T13:40:07;21.60;99.90
51655;DHT22;37732;53.106;7.030;2023-07-20T13:42:39;22.00;99.90
51655;DHT22;37732;53.106;7.030;2023-07-20T13:45:06;22.20;99.90
51655;DHT22;37732;53.106;7.030;2023-07-20T13:47:32;22.40;99.90
51655;DHT22;37732;53.106;7.030;2023-07-20T13:49:59;22.40;99.50
51655;DHT22;37732;53.106;7.030;2023-07-20T13:52:24;22.40;99.10
51655;DHT22;37732;53.106;7.030;2023-07-20T13:54:51;22.40;99.90
51655;DHT22;37732;53.106;7.030;2023-07-20T13:57:17;22.50;99.80
51655;DHT22;37732;53.106;7.030;2023-07-20T13:59:43;22.70;98.50
51655;DHT22;37732;53.106;7.030;2023-07-20T14:02:09;22.90;99.40
51655;DHT22;37732;53.106;7.030;2023-07-20T14:04:35;23.20;98.90
51655;DHT22;37732;53.106;7.030;2023-07-20T14:07:02;23.50;97.70
51655;DHT22;37732;53.106;7.030;2023-07-20T14:09:28;23.40;97.10
51655;DHT22;37732;53.106;7.030;2023-07-20T14:11:54;22.90;96.50
51655;DHT22;37732;53.106;7.030;2023-07-20T14:14:20;22.60;96.70
51655;DHT22;37732;53.106;7.030;2023-07-20T14:16:45;22.20;97.60
51655;DHT22;37732;53.106;7.030;2023-07-20T14:19:12;22.10;98.50
51655;DHT22;37732;53.106;7.030;2023-07-20T14:21:38;22.00;98.30
51655;DHT22;37732;53.106;7.030;2023-07-20T14:24:04;21.90;98.00
51655;DHT22;37732;53.106;7.030;2023-07-20T14:26:30;21.80;98.90
51655;DHT22;37732;53.106;7.030;2023-07-20T14:28:56;21.80;99.20
51655;DHT22;37732;53.106;7.030;2023-07-20T14:31:22;21.70;99.40
51655;DHT22;37732;53.106;7.030;2023-07-20T14:33:48;21.70;99.50
51655;DHT22;37732;53.106;7.030;2023-07-20T14:36:15;21.70;99.80
51655;DHT22;37732;53.106;7.030;2023-07-20T14:38:41;21.80;99.90
51655;DHT22;37732;53.106;7.030;2023-07-20T14:41:06;21.90;98.70
51655;DHT22;37732;53.106;7.030;2023-07-20T14:43:32;21.90;97.70
51655;DHT22;37732;53.106;7.030;2023-07-20T14:45:58;22.10;96.40
51655;DHT22;37732;53.106;7.030;2023-07-20T14:48:24;22.30;96.70
51655;DHT22;37732;53.106;7.030;2023-07-20T14:50:50;22.40;95.40
51655;DHT22;37732;53.106;7.030;2023-07-20T14:53:16;22.40;94.80
51655;DHT22;37732;53.106;7.030;2023-07-20T14:55:42;22.20;96.70
51655;DHT22;37732;53.106;7.030;2023-07-20T14:58:09;22.10;96.90
51655;DHT22;37732;53.106;7.030;2023-07-20T15:00:36;22.30;98.20
51655;DHT22;37732;53.106;7.030;2023-07-20T15:03:03;22.40;96.80
51655;DHT22;37732;53.106;7.030;2023-07-20T15:05:30;22.40;95.60
51655;DHT22;37732;53.106;7.030;2023-07-20T15:07:56;22.20;94.10
51655;DHT22;37732;53.106;7.030;2023-07-20T15:10:23;22.50;95.30
51655;DHT22;37732;53.106;7.030;2023-07-20T15:12:48;22.60;95.70
51655;DHT22;37732;53.106;7.030;2023-07-20T15:15:15;22.90;95.40
51655;DHT22;37732;53.106;7.030;2023-07-20T15:17:43;22.90;95.20
51655;DHT22;37732;53.106;7.030;2023-07-20T15:20:12;22.90;94.70
51655;DHT22;37732;53.106;7.030;2023-07-20T15:22:39;22.70;95.10
51655;DHT22;37732;53.106;7.030;2023-07-20T15:25:06;22.60;96.10
51655;DHT22;37732;53.106;7.030;2023-07-20T15:27:32;22.50;95.30
51655;DHT22;37732;53.106;7.030;2023-07-20T15:29:59;22.40;97.20
51655;DHT22;37732;53.106;7.030;2023-07-20T15:32:25;22.40;98.20
51655;DHT22;37732;53.106;7.030;2023-07-20T15:34:50;22.30;98.60
51655;DHT22;37732;53.106;7.030;2023-07-20T15:37:16;22.30;98.70
51655;DHT22;37732;53.106;7.030;2023-07-20T15:39:42;22.40;99.50
51655;DHT22;37732;53.106;7.030;2023-07-20T15:42:09;22.50;98.30
51655;DHT22;37732;53.106;7.030;2023-07-20T15:44:35;22.50;95.20
51655;DHT22;37732;53.106;7.030;2023-07-20T15:47:00;22.40;95.20
51655;DHT22;37732;53.106;7.030;2023-07-20T15:49:27;22.40;96.10
51655;DHT22;37732;53.106;7.030;2023-07-20T15:51:54;22.40;95.50